Thursday, February 22, 2018, 5:12 PM GMT
Back to Local

CYZX, Greenwood, N. S.

Location: , , Canada Lat: 44.983
Local Time: 5:12 PM GMT (17:12 GMT) Lon: -64.917
Time Zone: GMT Elev: 91 ft

Show me the last for .
Show Decoded

2018-02-22 16:00 METAR CYZX 221600Z 34007KT 15SM FEW250 M00/M07 A3058 RMK CI1 CI TR SLP359 =
2018-02-22 15:00 METAR CYZX 221500Z 32010KT 15SM FEW250 M01/M08 A3057 RMK CI1 CI TR SLP352 =
2018-02-22 14:00 METAR CYZX 221400Z 36011KT 15SM FEW250 M01/M08 A3057 RMK CI1 CI TR SLP352 =
2018-02-22 13:00 METAR CYZX 221300Z 34011KT 15SM FEW250 M01/M07 A3055 RMK CI1 CI TR SLP345 =
2018-02-22 12:00 METAR CYZX 221200Z 34006KT 15SM FEW250 M01/M07 A3053 RMK CI1 CI TR SLP341 =
2018-02-22 06:00 METAR CYZX 220600Z 31012G17KT 15SM FEW035 05/M01 A3032 RMK SC2 PRESRR SLP268 =
2018-02-22 05:00 METAR CYZX 220500Z 31014KT 15SM BKN035 08/03 A3026 RMK SC6 PRESRR SLP247 =
2018-02-22 04:00 METAR CYZX 220400Z 29014G24KT 15SM SCT080 09/06 A3017 RMK AC4 SLP217 =

Support USWX by starting your Amazon purchase here.